METAR Formatted Surface Weather Observation
Issued by NWS

Home | Current Version | Previous Version | Text Only | Print | Product List | Glossary On
Versions: 1
753
SAUS46 KSTO 211559 COR
MTRBLU
METAR KBLU 211552Z AUTO 06004KT 10SM OVC090 00/M13 A3023 RMK AO2
SLP256 T00001133 TSNO



USA.gov is the U.S. government's official web portal to all federal, state and local government web resources and services.